Terminal Aerodrome Forecast
Issued by NWS

Home | Current Version | Previous Version | Text Only | Print | Product List | Glossary On
Versions: 1 2 3 4 5 6 7 8 9 10 11 12 13 14 15 16 17 18 19
000
FTUS43 KJKL 302300
TAFSJS
TAF
KSJS 302339Z 3100/3124 VRB04KT P6SM SCT035 BKN250
     FM310200 00000KT P6SM FEW040
     FM310900 00000KT 2SM BR SCT002
     FM311300 23005KT P6SM SCT040=

USA.gov is the U.S. government's official web portal to all federal, state and local government web resources and services.